Racecast

Zakhari Nelson

Sacramento Speed Factory (CA) · - · STS · Compare head to head

Athlete rating 112.1 2015 TF season
Best race 112.9 TF
Races 56
Seasons 4 2012 — 2015

RankedNation #10060·CA #678·Team #7 ?

Rating scale ?
Speed rating — all races

Track & Field

TF speed rating

2015 TF 109.7

Sacramento Speed Factory (CA) · Grade -

Date Meet Event Result Place Rating Difficulty PR/SR Flags
2015-05-31 PAC (Pacific Association Youth Champions 1500m 5:36.29 45th · 1st on team 112.7 -0.024 R SR RSR
2015-05-31 PAC (Pacific Association Youth Champions 800m 2:42.44 39th · 1st on team 112.9 -0.024 ★R RSR
2015-05-02 Running Rebels/Top Pacers Invitational 1500m 5:38.72 20th · 1st on team 110.2 -0.038 SR
2015-05-02 Running Rebels/Top Pacers Invitational 800m 2:41.44 22nd · 1st on team 111.9 -0.038 R SR RSR
2015-04-25 Revolution Express Track Club 800m 2:44.09 9th · 2nd on team 111.6 -0.024 R SR RSR
2015-04-25 Revolution Express Track Club 1500m 5:45.22 19th · 1st on team 109.6 -0.024 SR
2015-04-04 Sacramento Speed Factory 1500m 5:48.88 14th · 1st on team 107.8 -0.033 SR
2015-04-04 Sacramento Speed Factory 800m 2:48.66 25th · 1st on team 107.8 -0.033 SR
2015-03-21 RPM Legacy 400m 1:14.1 59th · 4th on team -0.020 SR
2015-03-21 RPM Legacy 1500m 5:53.11 23rd · 1st on team 107.9 -0.020 R SR RSR
2015-03-21 RPM Legacy 800m 2:55.8 13th · 1st on team 104.8 -0.020 SR

2014 TF 90.1

Sacramento Speed Factory (CA) · Grade -

Date Meet Event Result Place Rating Difficulty PR/SR Flags
2014-06-20 USATF Pacific Assoc. Junior Olympics (Top 8) 800m 2:43.65 18th · 2nd on team 92.5 -0.031
2014-05-24 Central Valley Roadrunners 1500m 5:28.29 9th · 1st on team 97.5 -0.026 ★PR R SR RSR
2014-05-24 Central Valley Roadrunners 800m 2:37.86 6th · 2nd on team 96.5 -0.026 ★PR SR
2014-05-18 3M Invitational 400m 1:11.19 12th · 4th on team -0.028 ★PR SR
2014-05-18 3M Invitational 1500m 5:35.64 7th · 1st on team 95.2 -0.028 PR R SR RSR
2014-05-18 3M Invitational 800m 2:41.22 7th · 1st on team 94.3 -0.028 PR SR
2014-05-03 Hercules Running Rebels/Top Pacers Inv. 800m 2:43.61 3rd · 3rd on team 92.0 -0.038 PR R SR RSR
2014-05-03 Hercules Running Rebels/Top Pacers Inv. 400m 1:12.16 3rd · 3rd on team -0.038
2014-04-26 Revolution Express TC 800m 2:55.15 8th · 2nd on team 86.7 -0.024 PR SR
2014-04-26 Revolution Express TC 1500m 5:46.87 13th · 1st on team 91.8 -0.024 PR R SR RSR
2014-04-26 Revolution Express TC 400m 1:11.52 16th · 5th on team -0.024 PR SR
2014-04-05 Sacramento Speed Showcase 400m 1:13.36 25th · 4th on team -0.033 PR SR
2014-04-05 Sacramento Speed Showcase 1500m 6:01.9 12th · 1st on team 87.6 -0.033
2014-04-05 Sacramento Speed Showcase 800m 2:57.18 29th · 2nd on team 85.2 -0.033 PR SR
2014-03-22 RPM 400m 1:17.04 35th · 5th on team -0.012 PR SR
2014-03-22 RPM 800m 3:09.4 16th · 1st on team 81.3 -0.012 SR
2014-03-22 RPM 1500m 5:58.7 10th · 1st on team 90.2 -0.012 PR R SR RSR
2014-03-01 RETC Practice Meet 1500m 6:18.9 3rd · 1st on team 84.6 -0.024 SR RSR
2014-03-01 RETC Practice Meet 3000m 13:33 4th · 1st on team 85.7 -0.024 ★PR R SR RSR

2013 TF 79.7

Sacramento Speed Factory (CA) · Grade -

Date Meet Event Result Place Rating Difficulty PR/SR Flags
2013-06-08 Pacific Association Youth Championship (PAC) - 2-day meet 800m 3:05.55 24th · 2nd on team 82.0 -0.024 SR
2013-06-08 Pacific Association Youth Championship (PAC) - 2-day meet 1500m 6:21.22 31st · 1st on team 83.8 -0.024 SR RSR
2013-05-11 Classic Track Club Relays 200m 36.4 14th · 1st on team -0.011 ★PR SR
2013-05-11 Classic Track Club Relays 400m 1:20.78 20th · 1st on team -0.011 PR SR
2013-05-11 Classic Track Club Relays 800m 3:05.83 10th · 1st on team 82.8 -0.011 SR RSR
2013-05-04 Hercules / Running Rebels (2-day) 3000m 13:56.24 11th · 1st on team 81.7 -0.038 PR SR
2013-05-04 Hercules / Running Rebels (2-day) 800m 3:11.43 34th · 2nd on team 78.3 -0.038
2013-04-27 Revolution Express Track Club 1500m 6:31.12 15th · 1st on team 81.8 -0.024
2013-04-27 Revolution Express Track Club 3000m 14:21.28 4th · 1st on team 80.7 -0.024
2013-04-27 Revolution Express Track Club 800m 3:07.99 27th · 2nd on team 80.9 -0.024 SR
2013-04-20 Shor / Sheppard Classic 1500m 6:27.77 31st · 1st on team 82.5 -0.022 SR RSR
2013-04-20 Shor / Sheppard Classic 800m 3:14.95 33rd · 1st on team 78.1 -0.022 SR
2013-04-06 Sacramento Speed Showcase 3000m 14:07.37 6th · 1st on team 80.8 -0.031 PR SR RSR
2013-04-06 Sacramento Speed Showcase 800m 3:21.04 29th · 1st on team 75.1 -0.031
2013-04-06 Sacramento Speed Showcase 1500m 6:50.85 15th · 1st on team 77.0 -0.031
2013-03-30 Stockton Saints 800m 3:27.03 5th · 1st on team 74.0 -0.016
2013-03-30 Stockton Saints 1500m 6:55.08 12th · 1st on team 77.5 -0.016
2013-03-09 RETC home practice meet 3000m 14:27 1st · 1st on team 80.0 -0.024 PR SR RSR
2013-03-09 RETC home practice meet 800m 3:15.5 7th · 1st on team 77.6 -0.024 SR
2013-03-09 RETC home practice meet 1500m 6:41 5th · 1st on team 79.5 -0.024 SR

2012 TF 82.2

Sacramento Speed Factory (CA) · Grade -

Date Meet Event Result Place Rating Difficulty PR/SR Flags
2012-06-22 USATF Pacific Association Junior Olympic Championships 1500m 6:13 1st · 1st on team 84.7 -0.024
2012-06-22 USATF Pacific Association Junior Olympic Championships 800m 3:01.1 1st · 1st on team 83.3 -0.024 PR SR
2012-05-19 3M Track Meet 800m 3:10.29 22nd · 1st on team 79.1 -0.031 PR SR
2012-05-19 3M Track Meet 1500m 6:12.46 7th · 1st on team 84.7 -0.031 PR R SR RSR
2012-05-05 Hercules Running Rebels / Top Pacers Invitational 1500m 6:35.31 12th · 1st on team 79.3 -0.038 PR R SR RSR
2012-04-07 Phenom Elite 400m 1:23.68 32nd · 2nd on team -0.022 PR SR